createdAt,value
2022-11-14T00:02:44.797Z,15.40
2022-11-14T00:05:31.747Z,14.63
2022-11-14T00:08:23.813Z,14.79
2022-11-14T00:11:10.255Z,15.20
2022-11-14T00:13:57.378Z,16.29
2022-11-14T00:16:43.887Z,15.66
2022-11-14T00:19:30.954Z,15.29
2022-11-14T00:22:17.464Z,15.36
2022-11-14T00:25:04.201Z,14.35
2022-11-14T00:27:50.487Z,14.65
2022-11-14T00:30:36.819Z,14.21
2022-11-14T00:33:23.412Z,14.47
2022-11-14T00:36:09.886Z,14.45
2022-11-14T00:38:56.299Z,13.74
2022-11-14T00:41:42.895Z,14.11
2022-11-14T00:44:29.132Z,14.51
2022-11-14T00:47:15.624Z,14.52
2022-11-14T00:50:03.445Z,15.43
2022-11-14T00:52:50.152Z,14.93
2022-11-14T00:55:36.768Z,14.19
2022-11-14T00:58:23.310Z,14.37
2022-11-14T01:01:10.498Z,18.20
2022-11-14T01:03:56.839Z,18.92
2022-11-14T01:06:43.333Z,18.91
2022-11-14T01:09:30.121Z,18.25
2022-11-14T01:12:16.787Z,16.99
2022-11-14T01:15:04.368Z,17.28
2022-11-14T01:17:51.493Z,19.05
2022-11-14T01:20:45.713Z,18.73
2022-11-14T01:23:33.240Z,18.37
2022-11-14T01:26:19.608Z,18.34
2022-11-14T01:29:06.476Z,18.10
2022-11-14T01:31:53.125Z,17.28
2022-11-14T01:34:39.772Z,16.54
2022-11-14T01:37:26.606Z,17.42
2022-11-14T01:40:13.494Z,18.18
2022-11-14T01:43:18.127Z,18.51
2022-11-14T01:46:09.276Z,19.28
2022-11-14T01:49:01.430Z,19.28
2022-11-14T01:51:47.896Z,19.20
2022-11-14T01:54:38.661Z,20.19
2022-11-14T01:57:31.569Z,20.64
2022-11-14T02:00:17.854Z,20.65
2022-11-14T02:03:04.939Z,19.88
2022-11-14T02:05:52.508Z,19.37
2022-11-14T02:08:39.475Z,18.79
2022-11-14T02:11:30.679Z,18.57
2022-11-14T02:14:17.163Z,18.50
2022-11-14T02:17:27.772Z,17.62
2022-11-14T02:20:11.302Z,17.22
2022-11-14T02:22:58.011Z,17.81
2022-11-14T02:25:44.851Z,19.66
2022-11-14T02:28:31.394Z,18.86
2022-11-14T02:31:18.777Z,22.61
2022-11-14T02:34:06.933Z,21.02
2022-11-14T02:36:53.813Z,19.29
2022-11-14T02:39:40.924Z,18.90
2022-11-14T02:42:27.291Z,19.03
2022-11-14T02:45:14.398Z,18.66
2022-11-14T02:48:00.653Z,18.71
2022-11-14T02:50:50.274Z,18.59
2022-11-14T02:53:36.620Z,19.07
2022-11-14T02:56:23.197Z,19.03
2022-11-14T02:59:09.735Z,18.43
2022-11-14T03:01:56.003Z,18.54
2022-11-14T03:04:42.472Z,18.36
2022-11-14T03:07:29.129Z,18.44
2022-11-14T03:10:15.432Z,18.79
2022-11-14T03:13:01.684Z,18.37
2022-11-14T03:15:48.533Z,20.12
2022-11-14T03:18:35.929Z,19.47
2022-11-14T03:21:23.428Z,19.81
2022-11-14T03:24:09.903Z,20.54
2022-11-14T03:26:57.917Z,20.85
2022-11-14T03:29:44.001Z,20.34
2022-11-14T03:32:30.374Z,20.39
2022-11-14T03:35:16.886Z,21.58
2022-11-14T03:38:03.752Z,22.61
2022-11-14T03:40:50.861Z,22.69
2022-11-14T03:43:38.856Z,23.61
2022-11-14T03:46:25.253Z,23.58
2022-11-14T03:49:11.744Z,22.44
2022-11-14T03:51:58.259Z,22.63
2022-11-14T03:54:44.581Z,22.55
2022-11-14T03:57:31.195Z,20.77
2022-11-14T04:00:18.618Z,21.56
2022-11-14T04:03:05.931Z,19.00
2022-11-14T04:05:53.583Z,18.73
2022-11-14T04:08:41.440Z,19.07
2022-11-14T04:11:27.949Z,18.68
2022-11-14T04:14:14.180Z,18.58
2022-11-14T04:17:00.992Z,19.06
2022-11-14T04:19:47.424Z,18.62
2022-11-14T04:22:33.827Z,19.12
2022-11-14T04:25:20.369Z,19.52
2022-11-14T04:28:06.647Z,19.84
2022-11-14T04:30:53.647Z,19.90
2022-11-14T04:33:40.194Z,18.79
2022-11-14T04:36:26.638Z,19.44
2022-11-14T04:39:13.293Z,19.97
2022-11-14T04:41:59.581Z,19.94
2022-11-14T04:44:46.303Z,21.72
2022-11-14T04:47:32.792Z,20.29
2022-11-14T04:50:19.251Z,19.99
2022-11-14T04:53:06.099Z,19.42
2022-11-14T04:55:52.559Z,19.84
2022-11-14T04:58:39.094Z,19.37
2022-11-14T05:01:25.709Z,19.60
2022-11-14T05:04:12.104Z,20.62
2022-11-14T05:06:58.841Z,20.79
2022-11-14T05:09:45.611Z,23.03
2022-11-14T05:12:32.190Z,22.64
2022-11-14T05:15:19.203Z,21.98
2022-11-14T05:18:05.666Z,23.18
2022-11-14T05:20:52.066Z,22.90
2022-11-14T05:23:38.706Z,22.49
2022-11-14T05:26:24.958Z,23.63
2022-11-14T05:29:11.631Z,23.18
2022-11-14T05:31:58.097Z,24.90
2022-11-14T05:34:44.593Z,24.29
2022-11-14T05:37:31.027Z,25.98
2022-11-14T05:40:19.314Z,24.35
2022-11-14T05:43:07.008Z,23.47
2022-11-14T05:45:53.556Z,22.83
2022-11-14T05:48:40.752Z,22.60
2022-11-14T05:51:26.907Z,22.57
2022-11-14T05:54:13.324Z,21.57
2022-11-14T05:56:59.889Z,20.69
2022-11-14T05:59:46.199Z,20.82
2022-11-14T06:02:32.806Z,20.49
2022-11-14T06:05:20.478Z,20.20
2022-11-14T06:08:07.081Z,19.42
2022-11-14T06:10:53.720Z,19.78
2022-11-14T06:13:40.894Z,19.39
2022-11-14T06:16:27.772Z,18.79
2022-11-14T06:19:13.934Z,18.68
2022-11-14T06:22:00.508Z,18.54
2022-11-14T06:24:46.654Z,19.58
2022-11-14T06:27:33.008Z,20.35
2022-11-14T06:30:19.628Z,20.76
2022-11-14T06:33:06.302Z,23.01
2022-11-14T06:36:01.439Z,21.83
2022-11-14T06:38:47.916Z,22.49
2022-11-14T06:41:34.805Z,22.58
2022-11-14T06:44:23.160Z,23.46
2022-11-14T06:47:14.021Z,23.05
2022-11-14T06:50:00.492Z,22.12
2022-11-14T06:52:46.914Z,22.09
2022-11-14T06:55:33.598Z,21.53
2022-11-14T06:58:20.165Z,21.86
2022-11-14T07:01:13.354Z,22.95
2022-11-14T07:04:00.678Z,23.99
2022-11-14T07:06:47.521Z,24.63
2022-11-14T07:09:33.940Z,23.76
2022-11-14T07:12:20.946Z,23.39
2022-11-14T07:15:08.127Z,24.93
2022-11-14T07:17:54.567Z,26.11
2022-11-14T07:20:41.025Z,25.86
2022-11-14T07:23:28.658Z,26.19
2022-11-14T07:26:15.611Z,26.13
2022-11-14T07:29:03.053Z,25.98
2022-11-14T07:31:49.650Z,25.64
2022-11-14T07:34:36.298Z,27.36
2022-11-14T07:37:23.143Z,27.71
2022-11-14T07:40:10.447Z,27.84
2022-11-14T07:42:59.750Z,26.05
2022-11-14T07:45:46.312Z,24.14
2022-11-14T07:48:33.711Z,23.79
2022-11-14T07:51:20.802Z,23.78
2022-11-14T07:54:07.137Z,24.36
2022-11-14T07:56:53.698Z,23.85
2022-11-14T07:59:40.197Z,25.33
2022-11-14T08:02:26.782Z,26.95
2022-11-14T08:05:13.405Z,25.73
2022-11-14T08:08:00.523Z,25.62
2022-11-14T08:10:47.076Z,24.80
2022-11-14T08:13:34.052Z,24.27
2022-11-14T08:16:20.773Z,22.20
2022-11-14T08:19:07.377Z,21.75
2022-11-14T08:21:53.984Z,21.82
2022-11-14T08:24:40.366Z,21.91
2022-11-14T08:27:26.918Z,22.01
2022-11-14T08:30:14.024Z,22.65
2022-11-14T08:33:07.299Z,23.09
2022-11-14T08:35:54.103Z,22.28
2022-11-14T08:38:41.264Z,22.17
2022-11-14T08:41:27.560Z,22.33
2022-11-14T08:44:13.939Z,21.90
2022-11-14T08:47:00.911Z,21.09
2022-11-14T08:49:47.372Z,22.06
2022-11-14T08:52:33.992Z,21.89
2022-11-14T08:55:22.198Z,20.31
2022-11-14T08:58:08.687Z,19.68
2022-11-14T09:00:55.032Z,21.00
2022-11-14T09:03:41.641Z,20.19
2022-11-14T09:06:28.367Z,25.72
2022-11-14T09:09:14.654Z,23.04
2022-11-14T09:12:01.557Z,19.85
2022-11-14T09:14:47.884Z,21.79
2022-11-14T09:17:35.379Z,19.59
2022-11-14T09:20:25.904Z,18.03
2022-11-14T09:23:17.212Z,17.33
2022-11-14T09:26:08.569Z,17.83
2022-11-14T09:28:55.995Z,21.26
2022-11-14T09:31:43.241Z,19.08
2022-11-14T09:34:29.974Z,17.86
2022-11-14T09:37:16.631Z,22.32
2022-11-14T09:40:03.670Z,19.55
2022-11-14T09:42:53.410Z,17.29
2022-11-14T09:45:49.149Z,16.79
2022-11-14T09:48:35.461Z,16.78
2022-11-14T09:51:30.737Z,26.26
2022-11-14T09:54:23.384Z,21.15
2022-11-14T09:57:18.865Z,34.86
2022-11-14T10:00:20.585Z,27.37
2022-11-14T10:03:21.980Z,18.46
2022-11-14T10:06:22.698Z,16.31
2022-11-14T10:09:30.686Z,22.56
2022-11-14T10:12:24.020Z,20.20
2022-11-14T10:15:16.316Z,20.43
2022-11-14T10:18:23.948Z,18.36
2022-11-14T10:21:28.454Z,13.89
2022-11-14T10:24:56.360Z,13.03
2022-11-14T10:28:07.441Z,12.53
2022-11-14T10:31:18.185Z,12.90
2022-11-14T10:34:09.501Z,11.95
2022-11-14T10:37:02.637Z,12.97
2022-11-14T10:39:55.593Z,11.70
2022-11-14T10:42:46.773Z,11.98
2022-11-14T10:45:41.832Z,12.05
2022-11-14T10:48:31.537Z,11.41
2022-11-14T10:51:20.299Z,11.00
2022-11-14T10:54:18.155Z,11.54
2022-11-14T10:57:15.967Z,12.22
2022-11-14T11:00:11.666Z,10.96
2022-11-14T11:02:58.090Z,11.84
2022-11-14T11:05:51.173Z,12.37
2022-11-14T11:09:01.794Z,12.65
2022-11-14T11:12:01.564Z,11.51
2022-11-14T11:14:49.928Z,10.63
2022-11-14T11:17:41.892Z,9.66
2022-11-14T11:20:33.829Z,9.45
2022-11-14T11:23:26.706Z,9.18
2022-11-14T11:26:25.057Z,9.54
2022-11-14T11:29:14.992Z,9.05
2022-11-14T11:32:01.456Z,8.92
2022-11-14T11:34:48.363Z,9.67
2022-11-14T11:37:48.164Z,9.44
2022-11-14T11:40:34.653Z,9.17
2022-11-14T11:43:40.483Z,9.47
2022-11-14T11:46:52.702Z,9.13
2022-11-14T11:49:50.025Z,8.48
2022-11-14T11:52:50.452Z,8.01
2022-11-14T11:55:43.477Z,8.36
2022-11-14T11:58:35.876Z,8.04
2022-11-14T12:01:22.198Z,8.04
2022-11-14T12:04:08.971Z,6.65
2022-11-14T12:07:16.950Z,6.09
2022-11-14T12:10:14.555Z,5.50
2022-11-14T12:13:39.879Z,5.71
2022-11-14T12:16:52.395Z,5.70
2022-11-14T12:19:57.441Z,5.47
2022-11-14T12:22:55.441Z,5.21
2022-11-14T12:25:59.163Z,6.14
2022-11-14T12:29:10.120Z,5.35
2022-11-14T12:32:06.641Z,5.06
2022-11-14T12:34:53.629Z,5.77
2022-11-14T12:37:50.079Z,5.82
2022-11-14T12:40:42.691Z,8.91
2022-11-14T12:43:43.157Z,8.10
2022-11-14T12:47:07.767Z,15.11
2022-11-14T12:49:54.643Z,12.35
2022-11-14T12:52:41.069Z,10.13
2022-11-14T12:55:31.046Z,6.39
2022-11-14T12:58:26.920Z,6.57
2022-11-14T13:01:44.468Z,7.49
2022-11-14T13:04:42.897Z,7.45
2022-11-14T13:07:49.025Z,7.82
2022-11-14T13:10:40.486Z,7.06
2022-11-14T13:13:46.133Z,6.19
2022-11-14T13:16:51.758Z,6.35
2022-11-14T13:20:05.225Z,6.63
2022-11-14T13:22:51.585Z,8.03
2022-11-14T13:25:38.225Z,10.78
2022-11-14T13:28:44.356Z,12.09
2022-11-14T13:31:33.481Z,9.64
2022-11-14T13:34:51.185Z,12.02
2022-11-14T13:37:50.138Z,8.64
2022-11-14T13:41:00.917Z,10.05
2022-11-14T13:44:17.981Z,11.53
2022-11-14T13:47:18.661Z,7.24
2022-11-14T13:50:19.612Z,6.32
2022-11-14T13:53:20.010Z,6.15
2022-11-14T13:56:13.148Z,9.56
2022-11-14T13:59:36.917Z,12.33
2022-11-14T14:02:26.005Z,14.78
2022-11-14T14:05:27.979Z,11.60
2022-11-14T14:08:39.256Z,9.27
2022-11-14T14:12:00.607Z,9.15
2022-11-14T14:15:23.140Z,13.05
2022-11-14T14:18:29.335Z,10.33
2022-11-14T14:21:43.781Z,7.61
2022-11-14T14:24:46.420Z,7.76
2022-11-14T14:28:08.268Z,6.75
2022-11-14T14:31:10.384Z,7.04
2022-11-14T14:33:56.977Z,6.96
2022-11-14T14:36:50.800Z,7.44
2022-11-14T14:39:37.289Z,7.74
2022-11-14T14:42:24.705Z,7.22
2022-11-14T14:45:20.689Z,9.04
2022-11-14T14:48:16.108Z,6.81
2022-11-14T14:51:05.106Z,7.41
2022-11-14T14:53:54.095Z,6.83
2022-11-14T14:56:53.256Z,7.25
2022-11-14T14:59:43.095Z,7.42
2022-11-14T15:02:29.860Z,7.26
2022-11-14T15:05:28.008Z,7.44
2022-11-14T15:08:17.015Z,8.38
2022-11-14T15:11:04.551Z,7.38
2022-11-14T15:13:56.323Z,6.56
2022-11-14T15:16:44.763Z,9.03
2022-11-14T15:19:40.732Z,13.53
2022-11-14T15:22:29.209Z,11.70
2022-11-14T15:25:16.088Z,8.10
2022-11-14T15:28:03.302Z,12.04
2022-11-14T15:31:02.684Z,12.97
2022-11-14T15:34:07.476Z,8.98
2022-11-14T15:37:05.766Z,10.28
2022-11-14T15:39:51.998Z,11.74
2022-11-14T15:42:39.489Z,10.75
2022-11-14T15:45:39.952Z,9.52
2022-11-14T15:48:26.254Z,8.55
2022-11-14T15:51:12.861Z,8.84
2022-11-14T15:53:59.183Z,7.69
2022-11-14T15:56:46.045Z,7.83
2022-11-14T15:59:32.842Z,9.67
2022-11-14T16:02:24.121Z,10.95
2022-11-14T16:05:13.803Z,10.58
2022-11-14T16:08:00.175Z,12.28
2022-11-14T16:10:47.265Z,9.62
2022-11-14T16:13:33.967Z,9.86
2022-11-14T16:16:20.971Z,9.47
2022-11-14T16:19:07.685Z,18.10
2022-11-14T16:21:54.131Z,8.82
2022-11-14T16:24:40.609Z,8.59
2022-11-14T16:27:27.381Z,11.29
2022-11-14T16:30:19.384Z,8.91
2022-11-14T16:33:06.135Z,8.33
2022-11-14T16:35:52.301Z,8.17
2022-11-14T16:38:39.220Z,7.98
2022-11-14T16:41:25.543Z,7.49
2022-11-14T16:44:15.881Z,7.42
2022-11-14T16:47:02.486Z,7.83
2022-11-14T16:49:49.024Z,8.35
2022-11-14T16:52:37.633Z,8.32
2022-11-14T16:55:24.115Z,8.35
2022-11-14T16:58:10.705Z,8.83
2022-11-14T17:00:57.081Z,7.47
2022-11-14T17:03:43.958Z,7.53
2022-11-14T17:06:30.515Z,7.64
2022-11-14T17:09:17.859Z,7.31
2022-11-14T17:12:05.011Z,9.49
2022-11-14T17:14:52.017Z,8.30
2022-11-14T17:17:38.949Z,12.29
2022-11-14T17:20:25.207Z,11.00
2022-11-14T17:23:11.955Z,10.13
2022-11-14T17:26:07.116Z,8.50
2022-11-14T17:28:53.917Z,8.39
2022-11-14T17:31:45.805Z,8.28
2022-11-14T17:34:33.709Z,8.27
2022-11-14T17:37:20.286Z,8.08
2022-11-14T17:40:10.204Z,8.47
2022-11-14T17:43:04.892Z,7.82
2022-11-14T17:45:57.750Z,8.15
2022-11-14T17:48:44.998Z,9.46
2022-11-14T17:51:32.649Z,8.50
2022-11-14T17:54:19.485Z,7.79
2022-11-14T17:57:07.145Z,7.68
2022-11-14T17:59:53.993Z,8.83
2022-11-14T18:02:40.562Z,9.63
2022-11-14T18:05:28.130Z,9.03
2022-11-14T18:08:14.906Z,9.45
2022-11-14T18:11:02.385Z,11.25
2022-11-14T18:13:48.679Z,10.23
2022-11-14T18:17:05.289Z,23.53
2022-11-14T18:19:42.706Z,15.87
2022-11-14T18:22:29.616Z,12.36
2022-11-14T18:25:15.898Z,11.51
2022-11-14T18:28:02.670Z,10.00
2022-11-14T18:30:56.558Z,8.79
2022-11-14T18:33:42.857Z,8.51
2022-11-14T18:36:29.379Z,9.19
2022-11-14T18:39:16.045Z,8.71
2022-11-14T18:42:02.391Z,12.23
2022-11-14T18:44:48.785Z,13.92
2022-11-14T18:47:35.205Z,14.46
2022-11-14T18:50:22.187Z,15.38
2022-11-14T18:53:08.910Z,14.99
2022-11-14T18:55:55.931Z,23.86
2022-11-14T18:58:44.149Z,22.76
2022-11-14T19:01:32.102Z,28.23
2022-11-14T19:04:19.907Z,24.75
2022-11-14T19:07:06.149Z,16.29
2022-11-14T19:09:53.000Z,13.52
2022-11-14T19:12:39.881Z,12.15
2022-11-14T19:15:27.189Z,11.40
2022-11-14T19:18:14.128Z,10.29
2022-11-14T19:21:02.757Z,12.38
2022-11-14T19:23:50.564Z,16.87
2022-11-14T19:26:37.487Z,16.74
2022-11-14T19:29:24.277Z,18.30
2022-11-14T19:32:11.182Z,23.95
2022-11-14T19:34:57.914Z,19.71
2022-11-14T19:37:44.544Z,15.96
2022-11-14T19:40:31.098Z,18.33
2022-11-14T19:43:18.855Z,23.99
2022-11-14T19:46:06.288Z,22.06
2022-11-14T19:48:56.992Z,16.08
2022-11-14T19:51:43.717Z,15.36
2022-11-14T19:54:30.618Z,15.13
2022-11-14T19:57:17.464Z,26.81
2022-11-14T20:00:04.901Z,22.52
2022-11-14T20:02:52.125Z,15.00
2022-11-14T20:05:38.550Z,14.57
2022-11-14T20:08:25.599Z,14.74
2022-11-14T20:11:12.085Z,14.27
2022-11-14T20:13:59.738Z,14.34
2022-11-14T20:16:46.793Z,14.70
2022-11-14T20:19:33.622Z,13.96
2022-11-14T20:22:20.270Z,14.00
2022-11-14T20:25:06.844Z,16.23
2022-11-14T20:27:53.478Z,17.94
2022-11-14T20:30:41.551Z,18.29
2022-11-14T20:33:29.700Z,17.19
2022-11-14T20:36:23.932Z,16.25
2022-11-14T20:39:10.548Z,16.10
2022-11-14T20:41:57.765Z,15.83
2022-11-14T20:44:44.607Z,16.66
2022-11-14T20:47:31.627Z,15.78
2022-11-14T20:50:18.095Z,15.86
2022-11-14T20:53:04.368Z,16.17
2022-11-14T20:55:54.232Z,16.78
2022-11-14T20:58:42.773Z,19.69
2022-11-14T21:01:29.128Z,28.35
2022-11-14T21:04:16.131Z,26.23
2022-11-14T21:07:02.819Z,20.27
2022-11-14T21:09:50.600Z,21.07
2022-11-14T21:12:37.561Z,20.33
2022-11-14T21:15:24.127Z,21.41
2022-11-14T21:18:10.527Z,20.54
2022-11-14T21:21:09.737Z,20.30
2022-11-14T21:23:57.180Z,19.63
2022-11-14T21:26:44.275Z,19.66
2022-11-14T21:29:30.852Z,19.67
2022-11-14T21:32:17.510Z,19.70
2022-11-14T21:35:09.408Z,19.14
2022-11-14T21:37:56.548Z,18.63
2022-11-14T21:40:43.746Z,18.38
2022-11-14T21:43:30.382Z,18.36
2022-11-14T21:46:17.899Z,19.00
2022-11-14T21:49:04.408Z,18.51
2022-11-14T21:51:51.179Z,18.75
2022-11-14T21:54:38.006Z,19.08
2022-11-14T21:57:24.802Z,18.49
2022-11-14T22:00:12.573Z,19.30
2022-11-14T22:03:18.917Z,19.23
2022-11-14T22:06:05.340Z,19.86
2022-11-14T22:08:54.457Z,19.92
2022-11-14T22:11:40.792Z,19.50
2022-11-14T22:14:28.083Z,19.51
2022-11-14T22:17:14.713Z,19.60
2022-11-14T22:20:01.224Z,19.96
2022-11-14T22:22:47.709Z,20.27
2022-11-14T22:25:34.236Z,19.96
2022-11-14T22:28:20.920Z,20.89
2022-11-14T22:31:10.288Z,21.06
2022-11-14T22:33:58.431Z,22.26
2022-11-14T22:36:45.073Z,23.46
2022-11-14T22:39:31.583Z,23.10
2022-11-14T22:42:17.899Z,22.69
2022-11-14T22:45:04.989Z,22.22
2022-11-14T22:47:56.865Z,22.64
2022-11-14T22:50:44.197Z,22.56
2022-11-14T22:53:33.863Z,22.30
2022-11-14T22:56:23.200Z,21.68
2022-11-14T22:59:09.757Z,21.59
2022-11-14T23:01:56.617Z,22.26
2022-11-14T23:04:42.884Z,21.97
2022-11-14T23:07:29.492Z,22.72
2022-11-14T23:10:16.442Z,22.23
2022-11-14T23:13:03.326Z,21.28
2022-11-14T23:15:49.834Z,21.73
2022-11-14T23:18:36.755Z,21.13
2022-11-14T23:21:31.900Z,21.73
2022-11-14T23:24:18.242Z,21.90
2022-11-14T23:27:04.657Z,21.45
2022-11-14T23:29:51.249Z,21.69
2022-11-14T23:32:37.721Z,21.89
2022-11-14T23:35:23.935Z,21.00
2022-11-14T23:38:10.640Z,20.62
2022-11-14T23:40:59.117Z,20.88
2022-11-14T23:43:45.978Z,20.26
2022-11-14T23:46:32.478Z,19.67
2022-11-14T23:49:19.064Z,19.54
2022-11-14T23:52:05.707Z,19.75
2022-11-14T23:54:52.511Z,19.63
2022-11-14T23:57:39.013Z,20.16
